sensor_id;sensor_type;location;lat;lon;timestamp;P1;durP1;ratioP1;P2;durP2;ratioP2
1613;SDS011;800;48.824;9.346;2022-12-11T00:00:49;19.23;;;13.90;;
1613;SDS011;800;48.824;9.346;2022-12-11T00:03:15;18.50;;;13.87;;
1613;SDS011;800;48.824;9.346;2022-12-11T00:05:42;16.30;;;12.17;;
1613;SDS011;800;48.824;9.346;2022-12-11T00:08:09;19.17;;;14.30;;
1613;SDS011;800;48.824;9.346;2022-12-11T00:10:35;16.50;;;13.80;;
1613;SDS011;800;48.824;9.346;2022-12-11T00:13:01;16.23;;;12.93;;
1613;SDS011;800;48.824;9.346;2022-12-11T00:15:26;17.00;;;12.43;;
1613;SDS011;800;48.824;9.346;2022-12-11T00:17:52;18.13;;;13.27;;
1613;SDS011;800;48.824;9.346;2022-12-11T00:20:18;15.10;;;11.07;;
1613;SDS011;800;48.824;9.346;2022-12-11T00:22:43;14.20;;;11.17;;
1613;SDS011;800;48.824;9.346;2022-12-11T00:25:09;17.10;;;12.40;;
1613;SDS011;800;48.824;9.346;2022-12-11T00:27:34;15.50;;;11.53;;
1613;SDS011;800;48.824;9.346;2022-12-11T00:30:00;15.33;;;11.43;;
1613;SDS011;800;48.824;9.346;2022-12-11T00:32:26;17.30;;;12.57;;
1613;SDS011;800;48.824;9.346;2022-12-11T00:34:51;17.77;;;12.57;;
1613;SDS011;800;48.824;9.346;2022-12-11T00:37:17;14.90;;;10.97;;
1613;SDS011;800;48.824;9.346;2022-12-11T00:39:43;17.97;;;13.57;;
1613;SDS011;800;48.824;9.346;2022-12-11T00:42:08;17.10;;;13.60;;
1613;SDS011;800;48.824;9.346;2022-12-11T00:44:34;16.10;;;12.33;;
1613;SDS011;800;48.824;9.346;2022-12-11T00:47:00;20.00;;;13.97;;
1613;SDS011;800;48.824;9.346;2022-12-11T00:49:26;24.80;;;16.30;;
1613;SDS011;800;48.824;9.346;2022-12-11T00:51:51;21.63;;;15.47;;
1613;SDS011;800;48.824;9.346;2022-12-11T00:54:17;19.57;;;14.60;;
1613;SDS011;800;48.824;9.346;2022-12-11T00:56:42;20.77;;;15.80;;
1613;SDS011;800;48.824;9.346;2022-12-11T00:59:08;20.33;;;14.10;;
1613;SDS011;800;48.824;9.346;2022-12-11T01:01:34;21.17;;;15.17;;
1613;SDS011;800;48.824;9.346;2022-12-11T01:03:59;19.40;;;14.67;;
1613;SDS011;800;48.824;9.346;2022-12-11T01:06:26;19.70;;;13.90;;
1613;SDS011;800;48.824;9.346;2022-12-11T01:08:52;17.67;;;13.20;;
1613;SDS011;800;48.824;9.346;2022-12-11T01:11:38;20.53;;;14.47;;
1613;SDS011;800;48.824;9.346;2022-12-11T01:14:05;19.07;;;14.70;;
1613;SDS011;800;48.824;9.346;2022-12-11T01:16:30;15.00;;;12.10;;
1613;SDS011;800;48.824;9.346;2022-12-11T01:18:56;18.73;;;13.57;;
1613;SDS011;800;48.824;9.346;2022-12-11T01:21:22;17.70;;;13.53;;
1613;SDS011;800;48.824;9.346;2022-12-11T01:23:49;18.63;;;13.23;;
1613;SDS011;800;48.824;9.346;2022-12-11T01:26:15;18.33;;;13.00;;
1613;SDS011;800;48.824;9.346;2022-12-11T01:28:41;18.83;;;13.67;;
1613;SDS011;800;48.824;9.346;2022-12-11T01:31:08;17.87;;;13.03;;
1613;SDS011;800;48.824;9.346;2022-12-11T01:33:36;17.60;;;12.80;;
1613;SDS011;800;48.824;9.346;2022-12-11T01:38:35;18.10;;;12.93;;
1613;SDS011;800;48.824;9.346;2022-12-11T01:41:01;22.37;;;15.93;;
1613;SDS011;800;48.824;9.346;2022-12-11T01:43:27;17.83;;;13.70;;
1613;SDS011;800;48.824;9.346;2022-12-11T01:45:52;17.33;;;13.77;;
1613;SDS011;800;48.824;9.346;2022-12-11T01:48:27;17.53;;;12.80;;
1613;SDS011;800;48.824;9.346;2022-12-11T01:50:57;18.23;;;12.17;;
1613;SDS011;800;48.824;9.346;2022-12-11T01:53:36;15.40;;;12.30;;
1613;SDS011;800;48.824;9.346;2022-12-11T01:56:09;16.47;;;11.60;;
1613;SDS011;800;48.824;9.346;2022-12-11T01:59:08;18.40;;;12.80;;
1613;SDS011;800;48.824;9.346;2022-12-11T02:01:33;18.20;;;13.00;;
1613;SDS011;800;48.824;9.346;2022-12-11T02:04:08;20.43;;;14.10;;
1613;SDS011;800;48.824;9.346;2022-12-11T02:06:39;16.60;;;12.27;;
1613;SDS011;800;48.824;9.346;2022-12-11T02:09:11;18.33;;;13.77;;
1613;SDS011;800;48.824;9.346;2022-12-11T02:11:58;19.70;;;14.20;;
1613;SDS011;800;48.824;9.346;2022-12-11T02:17:06;19.17;;;13.90;;
1613;SDS011;800;48.824;9.346;2022-12-11T02:19:57;18.03;;;13.97;;
1613;SDS011;800;48.824;9.346;2022-12-11T02:22:46;18.87;;;12.93;;
1613;SDS011;800;48.824;9.346;2022-12-11T02:25:46;18.90;;;13.17;;
1613;SDS011;800;48.824;9.346;2022-12-11T02:28:24;17.40;;;13.37;;
1613;SDS011;800;48.824;9.346;2022-12-11T02:31:11;18.57;;;13.33;;
1613;SDS011;800;48.824;9.346;2022-12-11T02:36:38;19.67;;;13.10;;
1613;SDS011;800;48.824;9.346;2022-12-11T02:39:09;14.17;;;11.97;;
1613;SDS011;800;48.824;9.346;2022-12-11T02:41:38;18.87;;;12.80;;
1613;SDS011;800;48.824;9.346;2022-12-11T02:44:06;20.53;;;14.10;;
1613;SDS011;800;48.824;9.346;2022-12-11T02:46:36;16.97;;;12.13;;
1613;SDS011;800;48.824;9.346;2022-12-11T02:49:01;16.83;;;12.67;;
1613;SDS011;800;48.824;9.346;2022-12-11T02:51:32;18.87;;;14.03;;
1613;SDS011;800;48.824;9.346;2022-12-11T02:54:01;20.03;;;14.70;;
1613;SDS011;800;48.824;9.346;2022-12-11T02:56:39;20.03;;;14.20;;
1613;SDS011;800;48.824;9.346;2022-12-11T02:59:12;18.50;;;14.10;;
1613;SDS011;800;48.824;9.346;2022-12-11T03:01:42;19.67;;;13.77;;
1613;SDS011;800;48.824;9.346;2022-12-11T03:04:07;17.53;;;13.27;;
1613;SDS011;800;48.824;9.346;2022-12-11T03:06:38;21.03;;;14.97;;
1613;SDS011;800;48.824;9.346;2022-12-11T03:09:08;20.57;;;14.47;;
1613;SDS011;800;48.824;9.346;2022-12-11T03:11:34;16.27;;;12.80;;
1613;SDS011;800;48.824;9.346;2022-12-11T03:14:00;16.60;;;12.57;;
1613;SDS011;800;48.824;9.346;2022-12-11T03:16:36;20.37;;;13.80;;
1613;SDS011;800;48.824;9.346;2022-12-11T03:22:09;19.80;;;14.20;;
1613;SDS011;800;48.824;9.346;2022-12-11T03:27:49;21.63;;;13.57;;
1613;SDS011;800;48.824;9.346;2022-12-11T03:30:22;19.90;;;14.60;;
1613;SDS011;800;48.824;9.346;2022-12-11T03:32:53;21.60;;;15.10;;
1613;SDS011;800;48.824;9.346;2022-12-11T03:35:29;21.90;;;14.30;;
1613;SDS011;800;48.824;9.346;2022-12-11T03:37:58;19.17;;;13.87;;
1613;SDS011;800;48.824;9.346;2022-12-11T03:40:29;18.40;;;14.00;;
1613;SDS011;800;48.824;9.346;2022-12-11T03:42:57;18.13;;;13.80;;
1613;SDS011;800;48.824;9.346;2022-12-11T03:45:24;18.33;;;13.93;;
1613;SDS011;800;48.824;9.346;2022-12-11T03:47:52;20.67;;;14.17;;
1613;SDS011;800;48.824;9.346;2022-12-11T03:50:22;18.97;;;13.20;;
1613;SDS011;800;48.824;9.346;2022-12-11T03:52:50;16.80;;;12.90;;
1613;SDS011;800;48.824;9.346;2022-12-11T03:55:17;16.03;;;12.93;;
1613;SDS011;800;48.824;9.346;2022-12-11T03:57:45;20.20;;;14.07;;
1613;SDS011;800;48.824;9.346;2022-12-11T04:00:13;19.40;;;13.70;;
1613;SDS011;800;48.824;9.346;2022-12-11T04:02:41;17.33;;;12.30;;
1613;SDS011;800;48.824;9.346;2022-12-11T04:05:07;18.50;;;13.13;;
1613;SDS011;800;48.824;9.346;2022-12-11T04:07:33;15.80;;;12.33;;
1613;SDS011;800;48.824;9.346;2022-12-11T04:09:59;16.27;;;12.03;;
1613;SDS011;800;48.824;9.346;2022-12-11T04:12:25;17.27;;;13.10;;
1613;SDS011;800;48.824;9.346;2022-12-11T04:14:51;17.27;;;12.67;;
1613;SDS011;800;48.824;9.346;2022-12-11T04:17:25;16.87;;;13.17;;
1613;SDS011;800;48.824;9.346;2022-12-11T04:20:10;17.37;;;12.00;;
1613;SDS011;800;48.824;9.346;2022-12-11T04:22:55;19.70;;;14.57;;
1613;SDS011;800;48.824;9.346;2022-12-11T04:25:39;17.87;;;13.00;;
1613;SDS011;800;48.824;9.346;2022-12-11T04:28:04;16.30;;;12.43;;
1613;SDS011;800;48.824;9.346;2022-12-11T04:30:30;14.27;;;11.00;;
1613;SDS011;800;48.824;9.346;2022-12-11T04:32:55;17.40;;;12.73;;
1613;SDS011;800;48.824;9.346;2022-12-11T04:35:21;14.73;;;11.70;;
1613;SDS011;800;48.824;9.346;2022-12-11T04:37:47;13.73;;;11.07;;
1613;SDS011;800;48.824;9.346;2022-12-11T04:40:14;13.77;;;10.90;;
1613;SDS011;800;48.824;9.346;2022-12-11T04:42:42;15.70;;;12.17;;
1613;SDS011;800;48.824;9.346;2022-12-11T04:45:08;17.73;;;12.40;;
1613;SDS011;800;48.824;9.346;2022-12-11T04:47:34;15.47;;;11.43;;
1613;SDS011;800;48.824;9.346;2022-12-11T04:50:01;15.10;;;11.87;;
1613;SDS011;800;48.824;9.346;2022-12-11T04:52:28;15.73;;;12.47;;
1613;SDS011;800;48.824;9.346;2022-12-11T04:54:53;13.83;;;11.03;;
1613;SDS011;800;48.824;9.346;2022-12-11T04:57:20;13.60;;;11.20;;
1613;SDS011;800;48.824;9.346;2022-12-11T04:59:46;15.30;;;12.37;;
1613;SDS011;800;48.824;9.346;2022-12-11T05:02:12;16.83;;;11.83;;
1613;SDS011;800;48.824;9.346;2022-12-11T05:04:37;16.47;;;12.37;;
1613;SDS011;800;48.824;9.346;2022-12-11T05:07:03;15.73;;;12.40;;
1613;SDS011;800;48.824;9.346;2022-12-11T05:09:29;17.10;;;12.40;;
1613;SDS011;800;48.824;9.346;2022-12-11T05:11:54;16.90;;;13.10;;
1613;SDS011;800;48.824;9.346;2022-12-11T05:14:20;19.40;;;14.00;;
1613;SDS011;800;48.824;9.346;2022-12-11T05:16:46;17.20;;;13.20;;
1613;SDS011;800;48.824;9.346;2022-12-11T05:19:12;20.20;;;15.40;;
1613;SDS011;800;48.824;9.346;2022-12-11T05:21:37;17.73;;;13.33;;
1613;SDS011;800;48.824;9.346;2022-12-11T05:24:03;19.83;;;14.53;;
1613;SDS011;800;48.824;9.346;2022-12-11T05:26:29;17.70;;;13.50;;
1613;SDS011;800;48.824;9.346;2022-12-11T05:28:54;17.13;;;13.30;;
1613;SDS011;800;48.824;9.346;2022-12-11T05:31:21;20.43;;;14.13;;
1613;SDS011;800;48.824;9.346;2022-12-11T05:33:49;23.00;;;14.13;;
1613;SDS011;800;48.824;9.346;2022-12-11T05:36:17;18.93;;;14.27;;
1613;SDS011;800;48.824;9.346;2022-12-11T05:38:44;19.73;;;14.83;;
1613;SDS011;800;48.824;9.346;2022-12-11T05:41:11;18.60;;;14.50;;
1613;SDS011;800;48.824;9.346;2022-12-11T05:43:39;18.40;;;14.90;;
1613;SDS011;800;48.824;9.346;2022-12-11T05:46:38;20.57;;;13.87;;
1613;SDS011;800;48.824;9.346;2022-12-11T05:48:57;19.17;;;14.50;;
1613;SDS011;800;48.824;9.346;2022-12-11T05:51:25;21.67;;;15.53;;
1613;SDS011;800;48.824;9.346;2022-12-11T05:53:52;21.03;;;14.57;;
1613;SDS011;800;48.824;9.346;2022-12-11T05:56:20;24.97;;;16.30;;
1613;SDS011;800;48.824;9.346;2022-12-11T05:58:47;24.30;;;15.40;;
1613;SDS011;800;48.824;9.346;2022-12-11T06:01:14;19.57;;;14.30;;
1613;SDS011;800;48.824;9.346;2022-12-11T06:03:44;18.70;;;13.93;;
1613;SDS011;800;48.824;9.346;2022-12-11T06:06:10;22.40;;;14.90;;
1613;SDS011;800;48.824;9.346;2022-12-11T06:08:36;22.73;;;15.87;;
1613;SDS011;800;48.824;9.346;2022-12-11T06:11:02;21.00;;;15.37;;
1613;SDS011;800;48.824;9.346;2022-12-11T06:13:28;22.30;;;15.63;;
1613;SDS011;800;48.824;9.346;2022-12-11T06:15:54;23.00;;;16.70;;
1613;SDS011;800;48.824;9.346;2022-12-11T06:18:19;23.50;;;16.50;;
1613;SDS011;800;48.824;9.346;2022-12-11T06:20:45;23.07;;;16.67;;
1613;SDS011;800;48.824;9.346;2022-12-11T06:23:11;22.63;;;15.03;;
1613;SDS011;800;48.824;9.346;2022-12-11T06:25:37;20.33;;;14.60;;
1613;SDS011;800;48.824;9.346;2022-12-11T06:28:03;24.10;;;17.43;;
1613;SDS011;800;48.824;9.346;2022-12-11T06:30:29;19.00;;;14.30;;
1613;SDS011;800;48.824;9.346;2022-12-11T06:32:56;24.13;;;17.60;;
1613;SDS011;800;48.824;9.346;2022-12-11T06:35:22;22.10;;;16.67;;
1613;SDS011;800;48.824;9.346;2022-12-11T06:37:47;21.80;;;16.33;;
1613;SDS011;800;48.824;9.346;2022-12-11T06:40:13;22.50;;;16.03;;
1613;SDS011;800;48.824;9.346;2022-12-11T06:42:39;19.47;;;15.27;;
1613;SDS011;800;48.824;9.346;2022-12-11T06:45:04;22.40;;;17.17;;
1613;SDS011;800;48.824;9.346;2022-12-11T06:47:30;22.37;;;16.50;;
1613;SDS011;800;48.824;9.346;2022-12-11T06:49:57;23.40;;;16.37;;
1613;SDS011;800;48.824;9.346;2022-12-11T06:55:09;24.20;;;17.13;;
1613;SDS011;800;48.824;9.346;2022-12-11T06:57:34;22.40;;;15.57;;
1613;SDS011;800;48.824;9.346;2022-12-11T07:00:00;19.90;;;16.33;;
1613;SDS011;800;48.824;9.346;2022-12-11T07:02:26;20.40;;;16.20;;
1613;SDS011;800;48.824;9.346;2022-12-11T07:04:52;22.70;;;16.47;;
1613;SDS011;800;48.824;9.346;2022-12-11T07:07:17;21.57;;;15.23;;
1613;SDS011;800;48.824;9.346;2022-12-11T07:09:43;23.60;;;16.93;;
1613;SDS011;800;48.824;9.346;2022-12-11T07:12:09;23.93;;;15.50;;
1613;SDS011;800;48.824;9.346;2022-12-11T07:14:35;21.20;;;16.20;;
1613;SDS011;800;48.824;9.346;2022-12-11T07:17:00;19.30;;;14.40;;
1613;SDS011;800;48.824;9.346;2022-12-11T07:19:26;20.53;;;15.40;;
1613;SDS011;800;48.824;9.346;2022-12-11T07:21:51;21.93;;;16.57;;
1613;SDS011;800;48.824;9.346;2022-12-11T07:24:17;26.10;;;17.50;;
1613;SDS011;800;48.824;9.346;2022-12-11T07:26:43;21.77;;;16.10;;
1613;SDS011;800;48.824;9.346;2022-12-11T07:29:08;22.27;;;15.67;;
1613;SDS011;800;48.824;9.346;2022-12-11T07:31:34;22.07;;;15.93;;
1613;SDS011;800;48.824;9.346;2022-12-11T07:34:01;23.00;;;15.83;;
1613;SDS011;800;48.824;9.346;2022-12-11T07:36:29;21.20;;;14.43;;
1613;SDS011;800;48.824;9.346;2022-12-11T07:38:55;21.60;;;15.00;;
1613;SDS011;800;48.824;9.346;2022-12-11T07:41:21;23.20;;;15.70;;
1613;SDS011;800;48.824;9.346;2022-12-11T07:43:47;20.50;;;15.23;;
1613;SDS011;800;48.824;9.346;2022-12-11T07:46:17;27.60;;;15.47;;
1613;SDS011;800;48.824;9.346;2022-12-11T07:48:45;22.97;;;16.07;;
1613;SDS011;800;48.824;9.346;2022-12-11T07:51:16;20.20;;;15.43;;
1613;SDS011;800;48.824;9.346;2022-12-11T07:53:51;23.60;;;16.40;;
1613;SDS011;800;48.824;9.346;2022-12-11T07:56:20;23.60;;;17.13;;
1613;SDS011;800;48.824;9.346;2022-12-11T07:58:45;24.63;;;18.30;;
1613;SDS011;800;48.824;9.346;2022-12-11T08:01:19;24.00;;;17.50;;
1613;SDS011;800;48.824;9.346;2022-12-11T08:03:46;24.50;;;17.37;;
1613;SDS011;800;48.824;9.346;2022-12-11T08:06:12;23.30;;;18.07;;
1613;SDS011;800;48.824;9.346;2022-12-11T08:08:38;26.60;;;20.40;;
1613;SDS011;800;48.824;9.346;2022-12-11T08:11:06;28.97;;;20.50;;
1613;SDS011;800;48.824;9.346;2022-12-11T08:13:35;30.20;;;21.30;;
1613;SDS011;800;48.824;9.346;2022-12-11T08:16:04;28.90;;;21.90;;
1613;SDS011;800;48.824;9.346;2022-12-11T08:18:32;25.73;;;18.30;;
1613;SDS011;800;48.824;9.346;2022-12-11T08:20:58;26.33;;;18.80;;
1613;SDS011;800;48.824;9.346;2022-12-11T08:23:28;29.27;;;20.20;;
1613;SDS011;800;48.824;9.346;2022-12-11T08:25:54;27.73;;;20.07;;
1613;SDS011;800;48.824;9.346;2022-12-11T08:28:19;26.20;;;19.10;;
1613;SDS011;800;48.824;9.346;2022-12-11T08:30:45;24.17;;;18.00;;
1613;SDS011;800;48.824;9.346;2022-12-11T08:33:10;29.20;;;20.27;;
1613;SDS011;800;48.824;9.346;2022-12-11T08:35:39;29.20;;;20.07;;
1613;SDS011;800;48.824;9.346;2022-12-11T08:38:05;28.53;;;19.87;;
1613;SDS011;800;48.824;9.346;2022-12-11T08:40:31;28.20;;;19.43;;
1613;SDS011;800;48.824;9.346;2022-12-11T08:42:56;27.43;;;19.27;;
1613;SDS011;800;48.824;9.346;2022-12-11T08:45:22;27.77;;;19.03;;
1613;SDS011;800;48.824;9.346;2022-12-11T08:47:47;29.47;;;20.37;;
1613;SDS011;800;48.824;9.346;2022-12-11T08:50:13;28.60;;;19.70;;
1613;SDS011;800;48.824;9.346;2022-12-11T08:52:39;29.50;;;20.80;;
1613;SDS011;800;48.824;9.346;2022-12-11T08:55:04;26.80;;;18.70;;
1613;SDS011;800;48.824;9.346;2022-12-11T08:57:30;27.80;;;19.13;;
1613;SDS011;800;48.824;9.346;2022-12-11T08:59:56;25.60;;;18.10;;
1613;SDS011;800;48.824;9.346;2022-12-11T09:02:21;24.90;;;18.00;;
1613;SDS011;800;48.824;9.346;2022-12-11T09:04:47;27.47;;;19.50;;
1613;SDS011;800;48.824;9.346;2022-12-11T09:07:12;23.13;;;17.37;;
1613;SDS011;800;48.824;9.346;2022-12-11T09:09:38;30.50;;;19.73;;
1613;SDS011;800;48.824;9.346;2022-12-11T09:12:04;27.47;;;19.00;;
1613;SDS011;800;48.824;9.346;2022-12-11T09:14:29;24.70;;;17.90;;
1613;SDS011;800;48.824;9.346;2022-12-11T09:16:55;25.07;;;18.77;;
1613;SDS011;800;48.824;9.346;2022-12-11T09:19:21;26.50;;;18.80;;
1613;SDS011;800;48.824;9.346;2022-12-11T09:21:46;24.33;;;18.77;;
1613;SDS011;800;48.824;9.346;2022-12-11T09:24:12;27.50;;;20.50;;
1613;SDS011;800;48.824;9.346;2022-12-11T09:26:47;33.40;;;20.80;;
1613;SDS011;800;48.824;9.346;2022-12-11T09:29:13;34.53;;;22.60;;
1613;SDS011;800;48.824;9.346;2022-12-11T09:31:38;28.00;;;20.80;;
1613;SDS011;800;48.824;9.346;2022-12-11T09:34:05;27.90;;;20.70;;
1613;SDS011;800;48.824;9.346;2022-12-11T09:36:32;31.63;;;20.80;;
1613;SDS011;800;48.824;9.346;2022-12-11T09:38:59;28.27;;;20.73;;
1613;SDS011;800;48.824;9.346;2022-12-11T09:41:31;27.13;;;19.33;;
1613;SDS011;800;48.824;9.346;2022-12-11T09:46:57;28.87;;;20.40;;
1613;SDS011;800;48.824;9.346;2022-12-11T09:51:58;28.97;;;19.90;;
1613;SDS011;800;48.824;9.346;2022-12-11T09:54:29;28.10;;;20.80;;
1613;SDS011;800;48.824;9.346;2022-12-11T10:02:45;24.57;;;16.87;;
1613;SDS011;800;48.824;9.346;2022-12-11T10:08:12;22.53;;;16.33;;
1613;SDS011;800;48.824;9.346;2022-12-11T10:10:42;22.03;;;16.97;;
1613;SDS011;800;48.824;9.346;2022-12-11T10:16:30;25.33;;;17.07;;
1613;SDS011;800;48.824;9.346;2022-12-11T10:19:00;22.43;;;16.27;;
1613;SDS011;800;48.824;9.346;2022-12-11T10:21:27;22.50;;;17.70;;
1613;SDS011;800;48.824;9.346;2022-12-11T10:24:12;23.47;;;16.33;;
1613;SDS011;800;48.824;9.346;2022-12-11T10:26:44;21.23;;;14.70;;
1613;SDS011;800;48.824;9.346;2022-12-11T10:29:12;22.63;;;16.50;;
1613;SDS011;800;48.824;9.346;2022-12-11T10:31:47;20.87;;;15.70;;
1613;SDS011;800;48.824;9.346;2022-12-11T10:34:33;21.37;;;16.00;;
1613;SDS011;800;48.824;9.346;2022-12-11T10:37:00;20.43;;;15.30;;
1613;SDS011;800;48.824;9.346;2022-12-11T10:39:26;22.67;;;15.63;;
1613;SDS011;800;48.824;9.346;2022-12-11T10:41:53;23.17;;;15.03;;
1613;SDS011;800;48.824;9.346;2022-12-11T10:44:21;22.87;;;14.47;;
1613;SDS011;800;48.824;9.346;2022-12-11T10:46:47;18.87;;;14.70;;
1613;SDS011;800;48.824;9.346;2022-12-11T10:49:30;19.60;;;14.40;;
1613;SDS011;800;48.824;9.346;2022-12-11T10:51:57;17.43;;;13.30;;
1613;SDS011;800;48.824;9.346;2022-12-11T10:57:24;18.50;;;13.97;;
1613;SDS011;800;48.824;9.346;2022-12-11T10:59:55;18.97;;;14.40;;
1613;SDS011;800;48.824;9.346;2022-12-11T11:02:22;19.40;;;15.37;;
1613;SDS011;800;48.824;9.346;2022-12-11T11:04:52;18.33;;;13.90;;
1613;SDS011;800;48.824;9.346;2022-12-11T11:07:23;15.67;;;11.93;;
1613;SDS011;800;48.824;9.346;2022-12-11T11:10:13;21.47;;;14.47;;
1613;SDS011;800;48.824;9.346;2022-12-11T11:12:43;18.93;;;14.40;;
1613;SDS011;800;48.824;9.346;2022-12-11T11:15:15;18.13;;;13.00;;
1613;SDS011;800;48.824;9.346;2022-12-11T11:17:50;16.77;;;12.77;;
1613;SDS011;800;48.824;9.346;2022-12-11T11:20:19;18.67;;;14.30;;
1613;SDS011;800;48.824;9.346;2022-12-11T11:22:48;19.90;;;14.23;;
1613;SDS011;800;48.824;9.346;2022-12-11T11:25:24;22.93;;;14.93;;
1613;SDS011;800;48.824;9.346;2022-12-11T11:27:56;22.43;;;15.23;;
1613;SDS011;800;48.824;9.346;2022-12-11T11:32:55;23.37;;;16.47;;
1613;SDS011;800;48.824;9.346;2022-12-11T11:35:25;19.00;;;13.60;;
1613;SDS011;800;48.824;9.346;2022-12-11T11:37:54;21.07;;;14.50;;
1613;SDS011;800;48.824;9.346;2022-12-11T11:40:26;23.07;;;14.27;;
1613;SDS011;800;48.824;9.346;2022-12-11T11:43:03;16.50;;;12.33;;
1613;SDS011;800;48.824;9.346;2022-12-11T11:46:00;19.10;;;11.50;;
1613;SDS011;800;48.824;9.346;2022-12-11T11:48:32;13.87;;;11.30;;
1613;SDS011;800;48.824;9.346;2022-12-11T11:51:11;17.07;;;12.10;;
1613;SDS011;800;48.824;9.346;2022-12-11T11:53:39;14.80;;;10.90;;
1613;SDS011;800;48.824;9.346;2022-12-11T11:59:10;20.93;;;12.00;;
1613;SDS011;800;48.824;9.346;2022-12-11T12:01:58;15.17;;;11.90;;
1613;SDS011;800;48.824;9.346;2022-12-11T12:04:25;15.70;;;11.10;;
1613;SDS011;800;48.824;9.346;2022-12-11T12:07:06;16.30;;;11.30;;
1613;SDS011;800;48.824;9.346;2022-12-11T12:09:53;15.87;;;11.17;;
1613;SDS011;800;48.824;9.346;2022-12-11T12:12:52;16.67;;;12.97;;
1613;SDS011;800;48.824;9.346;2022-12-11T12:18:31;19.43;;;12.30;;
1613;SDS011;800;48.824;9.346;2022-12-11T12:26:33;18.00;;;12.70;;
1613;SDS011;800;48.824;9.346;2022-12-11T12:29:08;16.77;;;11.80;;
1613;SDS011;800;48.824;9.346;2022-12-11T12:42:57;18.67;;;11.77;;
1613;SDS011;800;48.824;9.346;2022-12-11T12:47:54;23.30;;;14.87;;
1613;SDS011;800;48.824;9.346;2022-12-11T12:50:24;20.20;;;14.47;;
1613;SDS011;800;48.824;9.346;2022-12-11T12:52:52;22.07;;;14.57;;
1613;SDS011;800;48.824;9.346;2022-12-11T12:55:22;16.47;;;12.43;;
1613;SDS011;800;48.824;9.346;2022-12-11T12:58:01;19.00;;;13.10;;
1613;SDS011;800;48.824;9.346;2022-12-11T13:00:39;17.77;;;12.93;;
1613;SDS011;800;48.824;9.346;2022-12-11T13:03:14;23.43;;;14.47;;
1613;SDS011;800;48.824;9.346;2022-12-11T13:05:44;19.40;;;14.30;;
1613;SDS011;800;48.824;9.346;2022-12-11T13:08:31;19.13;;;13.90;;
1613;SDS011;800;48.824;9.346;2022-12-11T13:11:04;20.27;;;14.07;;
1613;SDS011;800;48.824;9.346;2022-12-11T13:18:39;23.50;;;15.47;;
1613;SDS011;800;48.824;9.346;2022-12-11T13:26:44;24.43;;;15.57;;
1613;SDS011;800;48.824;9.346;2022-12-11T13:29:27;24.77;;;16.87;;
1613;SDS011;800;48.824;9.346;2022-12-11T13:32:00;25.07;;;16.80;;
1613;SDS011;800;48.824;9.346;2022-12-11T13:34:32;25.77;;;18.43;;
1613;SDS011;800;48.824;9.346;2022-12-11T13:37:04;21.90;;;15.87;;
1613;SDS011;800;48.824;9.346;2022-12-11T13:39:32;20.73;;;15.40;;
1613;SDS011;800;48.824;9.346;2022-12-11T13:42:03;25.23;;;17.07;;
1613;SDS011;800;48.824;9.346;2022-12-11T13:44:45;23.53;;;16.53;;
1613;SDS011;800;48.824;9.346;2022-12-11T13:47:13;22.77;;;15.43;;
1613;SDS011;800;48.824;9.346;2022-12-11T13:49:41;24.80;;;16.03;;
1613;SDS011;800;48.824;9.346;2022-12-11T13:52:16;25.27;;;16.27;;
1613;SDS011;800;48.824;9.346;2022-12-11T13:54:49;23.67;;;15.13;;
1613;SDS011;800;48.824;9.346;2022-12-11T13:57:18;23.20;;;15.37;;
1613;SDS011;800;48.824;9.346;2022-12-11T13:59:49;22.23;;;14.03;;
1613;SDS011;800;48.824;9.346;2022-12-11T14:05:06;19.90;;;13.37;;
1613;SDS011;800;48.824;9.346;2022-12-11T14:07:39;21.97;;;13.80;;
1613;SDS011;800;48.824;9.346;2022-12-11T14:10:15;20.93;;;13.00;;
1613;SDS011;800;48.824;9.346;2022-12-11T14:15:26;22.27;;;14.30;;
1613;SDS011;800;48.824;9.346;2022-12-11T14:17:54;23.50;;;14.30;;
1613;SDS011;800;48.824;9.346;2022-12-11T14:20:25;19.50;;;15.00;;
1613;SDS011;800;48.824;9.346;2022-12-11T14:25:53;23.53;;;13.40;;
1613;SDS011;800;48.824;9.346;2022-12-11T14:28:19;22.53;;;14.50;;
1613;SDS011;800;48.824;9.346;2022-12-11T14:30:49;22.20;;;16.63;;
1613;SDS011;800;48.824;9.346;2022-12-11T14:33:16;23.57;;;17.60;;
1613;SDS011;800;48.824;9.346;2022-12-11T14:35:46;23.50;;;15.83;;
1613;SDS011;800;48.824;9.346;2022-12-11T14:38:34;23.67;;;15.00;;
1613;SDS011;800;48.824;9.346;2022-12-11T14:41:02;23.87;;;14.97;;
1613;SDS011;800;48.824;9.346;2022-12-11T14:43:35;24.30;;;14.63;;
1613;SDS011;800;48.824;9.346;2022-12-11T14:46:07;24.83;;;16.40;;
1613;SDS011;800;48.824;9.346;2022-12-11T14:48:44;24.37;;;15.57;;
1613;SDS011;800;48.824;9.346;2022-12-11T14:51:15;23.00;;;16.20;;
1613;SDS011;800;48.824;9.346;2022-12-11T14:53:44;26.23;;;17.10;;
1613;SDS011;800;48.824;9.346;2022-12-11T14:56:15;24.93;;;16.40;;
1613;SDS011;800;48.824;9.346;2022-12-11T14:58:45;28.83;;;18.73;;
1613;SDS011;800;48.824;9.346;2022-12-11T15:01:22;26.03;;;14.60;;
1613;SDS011;800;48.824;9.346;2022-12-11T15:06:42;24.40;;;16.17;;
1613;SDS011;800;48.824;9.346;2022-12-11T15:11:45;24.87;;;16.53;;
1613;SDS011;800;48.824;9.346;2022-12-11T15:14:13;22.90;;;15.00;;
1613;SDS011;800;48.824;9.346;2022-12-11T15:16:40;27.40;;;17.80;;
1613;SDS011;800;48.824;9.346;2022-12-11T15:19:06;27.93;;;16.50;;
1613;SDS011;800;48.824;9.346;2022-12-11T15:21:45;27.20;;;17.23;;
1613;SDS011;800;48.824;9.346;2022-12-11T15:24:21;28.03;;;16.00;;
1613;SDS011;800;48.824;9.346;2022-12-11T15:26:55;24.77;;;16.33;;
1613;SDS011;800;48.824;9.346;2022-12-11T15:32:00;24.40;;;16.27;;
1613;SDS011;800;48.824;9.346;2022-12-11T15:34:40;24.87;;;16.27;;
1613;SDS011;800;48.824;9.346;2022-12-11T15:39:42;28.80;;;15.93;;
1613;SDS011;800;48.824;9.346;2022-12-11T15:42:08;28.07;;;17.33;;
1613;SDS011;800;48.824;9.346;2022-12-11T15:44:37;26.57;;;17.07;;
1613;SDS011;800;48.824;9.346;2022-12-11T15:47:17;29.43;;;17.77;;
1613;SDS011;800;48.824;9.346;2022-12-11T15:49:46;26.00;;;17.07;;
1613;SDS011;800;48.824;9.346;2022-12-11T15:52:12;25.17;;;16.67;;
1613;SDS011;800;48.824;9.346;2022-12-11T15:54:37;24.40;;;16.87;;
1613;SDS011;800;48.824;9.346;2022-12-11T15:57:03;26.70;;;16.10;;
1613;SDS011;800;48.824;9.346;2022-12-11T15:59:31;25.60;;;16.97;;
1613;SDS011;800;48.824;9.346;2022-12-11T16:01:58;25.93;;;17.20;;
1613;SDS011;800;48.824;9.346;2022-12-11T16:04:23;27.23;;;16.13;;
1613;SDS011;800;48.824;9.346;2022-12-11T16:06:50;28.93;;;16.80;;
1613;SDS011;800;48.824;9.346;2022-12-11T16:09:15;27.87;;;17.80;;
1613;SDS011;800;48.824;9.346;2022-12-11T16:11:41;31.40;;;16.47;;
1613;SDS011;800;48.824;9.346;2022-12-11T16:14:06;24.93;;;15.20;;
1613;SDS011;800;48.824;9.346;2022-12-11T16:16:32;26.80;;;17.53;;
1613;SDS011;800;48.824;9.346;2022-12-11T16:18:58;25.10;;;16.17;;
1613;SDS011;800;48.824;9.346;2022-12-11T16:21:23;25.17;;;16.43;;
1613;SDS011;800;48.824;9.346;2022-12-11T16:23:49;25.50;;;17.73;;
1613;SDS011;800;48.824;9.346;2022-12-11T16:26:14;26.90;;;15.90;;
1613;SDS011;800;48.824;9.346;2022-12-11T16:28:40;25.43;;;14.97;;
1613;SDS011;800;48.824;9.346;2022-12-11T16:31:10;28.60;;;16.77;;
1613;SDS011;800;48.824;9.346;2022-12-11T16:33:37;27.00;;;16.30;;
1613;SDS011;800;48.824;9.346;2022-12-11T16:36:10;27.87;;;16.00;;
1613;SDS011;800;48.824;9.346;2022-12-11T16:38:37;22.17;;;15.20;;
1613;SDS011;800;48.824;9.346;2022-12-11T16:41:03;24.90;;;15.90;;
1613;SDS011;800;48.824;9.346;2022-12-11T16:43:29;22.67;;;15.57;;
1613;SDS011;800;48.824;9.346;2022-12-11T16:45:56;24.50;;;15.17;;
1613;SDS011;800;48.824;9.346;2022-12-11T16:48:22;21.80;;;14.23;;